createdAt,value
2019-03-21T00:01:16.462Z,100515.91
2019-03-21T00:03:49.601Z,100525.46
2019-03-21T00:06:20.984Z,100523.99
2019-03-21T00:08:52.359Z,100513.62
2019-03-21T00:12:01.879Z,100517.23
2019-03-21T00:14:45.291Z,100515.64
2019-03-21T00:17:28.705Z,100517.38
2019-03-21T00:19:59.987Z,100516.76
2019-03-21T00:22:31.309Z,100522.77
2019-03-21T00:25:02.759Z,100504.11
2019-03-21T00:27:34.015Z,100512.62
2019-03-21T00:30:08.536Z,100509.58
2019-03-21T00:32:39.959Z,100504.39
2019-03-21T00:35:12.053Z,100508.72
2019-03-21T00:37:42.631Z,100510.25
2019-03-21T00:40:17.175Z,100504.35
2019-03-21T00:42:48.915Z,100496.58
2019-03-21T00:45:20.325Z,100510.05
2019-03-21T00:47:51.792Z,100503.49
2019-03-21T00:50:26.206Z,100506.91
2019-03-21T00:52:57.666Z,100504.48
2019-03-21T00:55:32.228Z,100507.28
2019-03-21T00:58:03.583Z,100509.05
2019-03-21T01:00:44.318Z,100510.19
2019-03-21T01:03:15.648Z,100503.71
2019-03-21T01:05:46.976Z,100503.21
2019-03-21T01:08:18.312Z,100499.83
2019-03-21T01:10:50.718Z,100503.80
2019-03-21T01:13:22.759Z,100499.38
2019-03-21T01:15:54.280Z,100505.12
2019-03-21T01:18:25.744Z,100505.52
2019-03-21T01:20:56.922Z,100506.93
2019-03-21T01:23:28.303Z,100508.44
2019-03-21T01:26:02.994Z,100508.59
2019-03-21T01:28:34.212Z,100510.16
2019-03-21T01:31:05.605Z,100503.23
2019-03-21T01:33:36.958Z,100499.05
2019-03-21T01:36:09.423Z,100505.59
2019-03-21T01:38:40.834Z,100499.30
2019-03-21T01:41:18.248Z,100497.45
2019-03-21T01:43:49.632Z,100506.58
2019-03-21T01:46:23.326Z,100510.64
2019-03-21T01:48:54.648Z,100510.98
2019-03-21T01:51:25.990Z,100511.46
2019-03-21T01:53:57.322Z,100504.12
2019-03-21T01:56:30.053Z,100503.47
2019-03-21T01:59:01.512Z,100510.46
2019-03-21T02:01:32.857Z,100514.91
2019-03-21T02:04:04.259Z,100518.02
2019-03-21T02:06:35.614Z,100517.58
2019-03-21T02:09:08.473Z,100511.39
2019-03-21T02:11:39.847Z,100517.59
2019-03-21T02:14:11.194Z,100513.12
2019-03-21T02:16:42.552Z,100517.70
2019-03-21T02:19:13.828Z,100515.70
2019-03-21T02:21:45.134Z,100515.34
2019-03-21T02:24:16.554Z,100520.84
2019-03-21T02:26:47.863Z,100517.47
2019-03-21T02:29:19.283Z,100514.13
2019-03-21T02:31:50.794Z,100512.41
2019-03-21T02:34:22.331Z,100515.39
2019-03-21T02:36:53.648Z,100507.50
2019-03-21T02:39:24.954Z,100510.61
2019-03-21T02:41:56.379Z,100510.12
2019-03-21T02:44:27.733Z,100510.42
2019-03-21T02:46:59.097Z,100514.89
2019-03-21T02:49:30.365Z,100514.73
2019-03-21T02:52:01.761Z,100512.55
2019-03-21T02:54:33.008Z,100514.73
2019-03-21T02:57:04.381Z,100517.63
2019-03-21T02:59:36.696Z,100512.34
2019-03-21T03:02:08.031Z,100509.98
2019-03-21T03:04:39.351Z,100509.66
2019-03-21T03:07:10.685Z,100515.34
2019-03-21T03:09:42.052Z,100508.38
2019-03-21T03:12:13.385Z,100511.45
2019-03-21T03:14:44.646Z,100509.44
2019-03-21T03:17:16.041Z,100509.14
2019-03-21T03:19:47.433Z,100507.14
2019-03-21T03:22:18.757Z,100511.50
2019-03-21T03:24:50.094Z,100508.02
2019-03-21T03:27:21.430Z,100503.89
2019-03-21T03:29:52.822Z,100506.98
2019-03-21T03:32:24.081Z,100511.56
2019-03-21T03:34:55.469Z,100514.83
2019-03-21T03:37:26.775Z,100516.62
2019-03-21T03:39:58.004Z,100522.34
2019-03-21T03:42:29.371Z,100530.03
2019-03-21T03:45:00.628Z,100523.88
2019-03-21T03:47:31.934Z,100525.60
2019-03-21T03:50:03.348Z,100523.88
2019-03-21T03:52:34.735Z,100528.79
2019-03-21T03:55:09.106Z,100523.48
2019-03-21T03:57:40.524Z,100529.19
2019-03-21T04:00:17.744Z,100530.27
2019-03-21T04:02:52.806Z,100524.83
2019-03-21T04:05:24.223Z,100527.47
2019-03-21T04:07:55.572Z,100528.87
2019-03-21T04:10:30.041Z,100536.30
2019-03-21T04:13:01.367Z,100539.14
2019-03-21T04:15:33.748Z,100540.48
2019-03-21T04:18:05.188Z,100540.76
2019-03-21T04:20:48.339Z,100547.88
2019-03-21T04:23:22.322Z,100554.44
2019-03-21T04:25:56.918Z,100551.59
2019-03-21T04:28:28.322Z,100553.45
2019-03-21T04:30:59.728Z,100556.77
2019-03-21T04:33:32.272Z,100557.67
2019-03-21T04:36:03.546Z,100553.19
2019-03-21T04:38:35.039Z,100560.36
2019-03-21T04:41:06.401Z,100558.13
2019-03-21T04:43:37.710Z,100558.61
2019-03-21T04:46:09.104Z,100560.91
2019-03-21T04:48:40.500Z,100562.94
2019-03-21T04:51:11.859Z,100560.80
2019-03-21T04:53:43.198Z,100566.66
2019-03-21T04:56:14.640Z,100560.45
2019-03-21T04:58:46.035Z,100562.98
2019-03-21T05:01:17.374Z,100564.22
2019-03-21T05:03:48.835Z,100564.17
2019-03-21T05:06:20.247Z,100563.95
2019-03-21T05:08:51.575Z,100562.53
2019-03-21T05:11:22.944Z,100558.41
2019-03-21T05:13:54.453Z,100560.44
2019-03-21T05:16:25.915Z,100551.13
2019-03-21T05:18:59.729Z,100554.05
2019-03-21T05:21:31.141Z,100554.30
2019-03-21T05:24:02.427Z,100559.47
2019-03-21T05:26:36.024Z,100556.72
2019-03-21T05:29:07.364Z,100561.48
2019-03-21T05:31:38.718Z,100566.53
2019-03-21T05:34:10.111Z,100564.16
2019-03-21T05:36:41.397Z,100574.64
2019-03-21T05:39:12.749Z,100575.06
2019-03-21T05:41:44.109Z,100574.20
2019-03-21T05:44:33.534Z,100566.98
2019-03-21T05:47:04.884Z,100565.61
2019-03-21T05:49:36.288Z,100569.07
2019-03-21T05:52:07.754Z,100562.98
2019-03-21T05:54:39.216Z,100565.31
2019-03-21T05:57:10.585Z,100569.17
2019-03-21T05:59:42.178Z,100563.66
2019-03-21T06:02:13.466Z,100566.50
2019-03-21T06:04:57.227Z,100565.72
2019-03-21T06:07:37.605Z,100561.73
2019-03-21T06:10:18.137Z,100554.77
2019-03-21T06:16:09.077Z,100551.94
2019-03-21T06:18:49.850Z,100544.72
2019-03-21T06:21:30.164Z,100544.37
2019-03-21T06:24:19.693Z,100552.82
2019-03-21T06:26:55.131Z,100552.82
2019-03-21T06:29:29.419Z,100550.09
2019-03-21T06:32:00.756Z,100546.27
2019-03-21T06:34:32.166Z,100538.34
2019-03-21T06:37:03.533Z,100542.08
2019-03-21T06:39:35.011Z,100535.90
2019-03-21T06:42:08.211Z,100531.16
2019-03-21T06:44:39.592Z,100531.97
2019-03-21T06:47:11.138Z,100535.78
2019-03-21T06:49:42.698Z,100530.77
2019-03-21T06:52:14.039Z,100536.33
2019-03-21T06:54:45.309Z,100534.80
2019-03-21T06:57:16.652Z,100531.70
2019-03-21T06:59:48.067Z,100531.87
2019-03-21T07:02:19.490Z,100534.10
2019-03-21T07:04:50.903Z,100526.75
2019-03-21T07:07:22.342Z,100525.41
2019-03-21T07:09:53.877Z,100522.73
2019-03-21T07:12:28.400Z,100519.38
2019-03-21T07:14:59.727Z,100514.42
2019-03-21T07:17:31.685Z,100521.80
2019-03-21T07:20:03.455Z,100516.45
2019-03-21T07:22:34.765Z,100511.40
2019-03-21T07:25:07.915Z,100519.05
2019-03-21T07:27:39.305Z,100513.67
2019-03-21T07:30:15.063Z,100515.23
2019-03-21T07:32:46.424Z,100515.63
2019-03-21T07:35:17.794Z,100513.75
2019-03-21T07:37:49.176Z,100519.48
2019-03-21T07:40:20.537Z,100515.91
2019-03-21T07:42:52.053Z,100506.04
2019-03-21T07:45:23.377Z,100515.78
2019-03-21T07:47:54.791Z,100514.09
2019-03-21T07:50:26.980Z,100509.73
2019-03-21T07:52:58.370Z,100505.37
2019-03-21T07:55:29.835Z,100506.02
2019-03-21T07:58:01.095Z,100511.77
2019-03-21T08:00:32.424Z,100500.97
2019-03-21T08:03:03.774Z,100500.97
2019-03-21T08:05:40.193Z,100507.30
2019-03-21T08:08:08.169Z,100502.98
2019-03-21T08:10:39.459Z,100499.30
2019-03-21T08:13:10.811Z,100499.20
2019-03-21T08:15:42.105Z,100504.38
2019-03-21T08:18:13.562Z,100494.23
2019-03-21T08:20:55.575Z,100490.92
2019-03-21T08:23:17.879Z,100472.22
2019-03-21T08:25:49.346Z,100476.72
2019-03-21T08:28:20.793Z,100479.47
2019-03-21T08:31:06.944Z,100484.04
2019-03-21T08:33:38.296Z,100477.76
2019-03-21T08:36:09.696Z,100473.74
2019-03-21T08:38:41.079Z,100472.39
2019-03-21T08:41:12.449Z,100476.58
2019-03-21T08:43:43.895Z,100476.02
2019-03-21T08:46:15.207Z,100478.31
2019-03-21T08:48:46.638Z,100488.25
2019-03-21T08:51:17.926Z,100481.09
2019-03-21T08:53:49.308Z,100467.25
2019-03-21T08:56:20.726Z,100466.94
2019-03-21T08:58:52.076Z,100461.74
2019-03-21T09:01:23.347Z,100465.21
2019-03-21T09:03:54.616Z,100467.06
2019-03-21T09:06:26.020Z,100458.98
2019-03-21T09:08:57.456Z,100462.80
2019-03-21T09:11:28.831Z,100454.55
2019-03-21T09:14:00.193Z,100453.23
2019-03-21T09:16:31.546Z,100451.05
2019-03-21T09:19:02.879Z,100450.78
2019-03-21T09:21:35.836Z,100451.16
2019-03-21T09:24:07.183Z,100450.09
2019-03-21T09:26:38.508Z,100461.74
2019-03-21T09:29:09.915Z,100462.27
2019-03-21T09:31:41.232Z,100450.88
2019-03-21T09:34:12.663Z,100448.78
2019-03-21T09:36:44.069Z,100445.84
2019-03-21T09:39:15.246Z,100443.98
2019-03-21T09:41:46.597Z,100446.55
2019-03-21T09:44:28.530Z,100462.16
2019-03-21T09:46:59.774Z,100451.56
2019-03-21T09:49:31.148Z,100445.86
2019-03-21T09:52:03.581Z,100442.00
2019-03-21T09:54:36.069Z,100453.08
2019-03-21T09:57:07.491Z,100449.38
2019-03-21T09:59:38.836Z,100440.86
2019-03-21T10:02:10.193Z,100446.90
2019-03-21T10:04:41.505Z,100442.37
2019-03-21T10:07:14.268Z,100441.13
2019-03-21T10:09:45.621Z,100426.81
2019-03-21T10:12:16.972Z,100424.08
2019-03-21T10:14:48.387Z,100424.28
2019-03-21T10:17:19.812Z,100416.91
2019-03-21T10:19:51.073Z,100417.89
2019-03-21T10:22:22.311Z,100410.89
2019-03-21T10:24:54.248Z,100397.52
2019-03-21T10:27:27.111Z,100400.23
2019-03-21T10:29:58.561Z,100394.22
2019-03-21T10:32:29.995Z,100395.30
2019-03-21T10:35:01.256Z,100382.70
2019-03-21T10:37:32.644Z,100372.53
2019-03-21T10:40:04.590Z,100370.91
2019-03-21T10:42:35.341Z,100369.81
2019-03-21T10:45:07.607Z,100356.81
2019-03-21T10:47:38.852Z,100352.39
2019-03-21T10:50:11.886Z,100355.47
2019-03-21T10:52:43.223Z,100350.95
2019-03-21T10:55:14.559Z,100349.02
2019-03-21T10:57:45.892Z,100345.25
2019-03-21T11:00:17.217Z,100339.94
2019-03-21T11:02:48.548Z,100345.53
2019-03-21T11:05:19.991Z,100325.31
2019-03-21T11:07:52.914Z,100335.06
2019-03-21T11:10:25.739Z,100329.30
2019-03-21T11:12:58.048Z,100319.38
2019-03-21T11:15:29.453Z,100312.94
2019-03-21T11:18:00.808Z,100312.64
2019-03-21T11:20:37.124Z,100312.26
2019-03-21T11:23:08.596Z,100312.91
2019-03-21T11:25:39.948Z,100314.30
2019-03-21T11:28:11.335Z,100317.00
2019-03-21T11:30:43.409Z,100297.55
2019-03-21T11:33:16.105Z,100306.03
2019-03-21T11:35:47.538Z,100299.88
2019-03-21T11:38:19.103Z,100303.61
2019-03-21T11:40:50.368Z,100301.97
2019-03-21T11:43:21.751Z,100301.27
2019-03-21T11:45:55.199Z,100297.64
2019-03-21T11:48:26.382Z,100296.84
2019-03-21T11:50:57.703Z,100279.92
2019-03-21T11:53:29.014Z,100273.11
2019-03-21T11:56:00.281Z,100274.97
2019-03-21T11:58:31.798Z,100275.99
2019-03-21T12:01:03.026Z,100273.98
2019-03-21T12:03:34.391Z,100276.78
2019-03-21T12:06:05.711Z,100264.87
2019-03-21T12:08:37.122Z,100264.87
2019-03-21T12:11:08.291Z,100266.84
2019-03-21T12:13:39.694Z,100255.17
2019-03-21T12:16:11.130Z,100254.19
2019-03-21T12:18:42.540Z,100248.34
2019-03-21T12:21:13.930Z,100253.87
2019-03-21T12:23:45.452Z,100248.41
2019-03-21T12:26:16.861Z,100248.14
2019-03-21T12:28:48.194Z,100244.16
2019-03-21T12:31:19.650Z,100237.27
2019-03-21T12:33:51.177Z,100238.97
2019-03-21T12:36:22.596Z,100238.70
2019-03-21T12:38:53.989Z,100239.63
2019-03-21T12:41:25.330Z,100232.58
2019-03-21T12:43:56.544Z,100240.70
2019-03-21T12:46:27.855Z,100230.35
2019-03-21T12:48:59.238Z,100225.67
2019-03-21T12:51:30.579Z,100239.92
2019-03-21T12:54:02.389Z,100226.16
2019-03-21T12:56:33.634Z,100220.22
2019-03-21T12:59:05.023Z,100218.14
2019-03-21T13:01:36.305Z,100214.63
2019-03-21T13:04:07.741Z,100223.25
2019-03-21T13:06:38.945Z,100210.00
2019-03-21T13:09:10.265Z,100218.34
2019-03-21T13:11:41.667Z,100209.31
2019-03-21T13:14:13.108Z,100209.55
2019-03-21T13:16:44.523Z,100209.55
2019-03-21T13:19:15.945Z,100203.95
2019-03-21T13:21:47.379Z,100205.23
2019-03-21T13:24:19.679Z,100202.28
2019-03-21T13:26:51.073Z,100203.21
2019-03-21T13:29:25.001Z,100203.31
2019-03-21T13:31:55.495Z,100201.51
2019-03-21T13:34:26.900Z,100207.64
2019-03-21T13:36:58.281Z,100208.59
2019-03-21T13:39:29.567Z,100206.22
2019-03-21T13:42:01.097Z,100206.86
2019-03-21T13:44:32.424Z,100211.30
2019-03-21T13:47:03.718Z,100208.08
2019-03-21T13:49:35.053Z,100195.67
2019-03-21T13:52:07.658Z,100201.22
2019-03-21T13:54:39.040Z,100196.58
2019-03-21T13:57:10.416Z,100196.73
2019-03-21T13:59:41.733Z,100183.30
2019-03-21T14:02:13.148Z,100189.16
2019-03-21T14:04:44.544Z,100182.05
2019-03-21T14:07:15.993Z,100193.77
2019-03-21T14:09:47.328Z,100190.23
2019-03-21T14:12:18.837Z,100188.45
2019-03-21T14:14:50.029Z,100193.37
2019-03-21T14:17:22.405Z,100191.05
2019-03-21T14:19:53.865Z,100185.02
2019-03-21T14:22:25.267Z,100190.59
2019-03-21T14:24:56.608Z,100188.50
2019-03-21T14:27:28.019Z,100184.24
2019-03-21T14:30:01.530Z,100187.59
2019-03-21T14:32:33.744Z,100187.52
2019-03-21T14:35:07.264Z,100193.77
2019-03-21T14:37:38.560Z,100196.44
2019-03-21T14:40:16.488Z,100199.29
2019-03-21T14:42:47.912Z,100197.05
2019-03-21T14:45:19.211Z,100195.39
2019-03-21T14:47:50.569Z,100188.95
2019-03-21T14:50:22.459Z,100191.87
2019-03-21T14:52:53.679Z,100190.33
2019-03-21T14:55:25.083Z,100192.66
2019-03-21T14:57:56.737Z,100176.64
2019-03-21T15:00:28.134Z,100181.12
2019-03-21T15:02:59.427Z,100193.88
2019-03-21T15:05:30.670Z,100188.15
2019-03-21T15:08:02.135Z,100190.52
2019-03-21T15:10:33.651Z,100192.36
2019-03-21T15:13:05.100Z,100199.56
2019-03-21T15:15:36.370Z,100210.13
2019-03-21T15:18:07.737Z,100205.56
2019-03-21T15:20:39.061Z,100202.59
2019-03-21T15:23:11.491Z,100204.44
2019-03-21T15:25:42.911Z,100203.73
2019-03-21T15:28:14.315Z,100209.23
2019-03-21T15:30:45.754Z,100211.70
2019-03-21T15:33:18.029Z,100208.61
2019-03-21T15:35:49.498Z,100202.21
2019-03-21T15:38:20.945Z,100216.20
2019-03-21T15:40:52.400Z,100209.87
2019-03-21T15:43:23.646Z,100218.44
2019-03-21T15:45:55.111Z,100217.08
2019-03-21T15:48:26.363Z,100215.13
2019-03-21T15:51:04.226Z,100212.45
2019-03-21T15:53:30.506Z,100220.84
2019-03-21T15:56:01.882Z,100218.15
2019-03-21T15:58:33.256Z,100206.91
2019-03-21T16:01:04.635Z,100213.78
2019-03-21T16:03:36.024Z,100204.70
2019-03-21T16:06:07.398Z,100204.38
2019-03-21T16:08:38.659Z,100212.27
2019-03-21T16:11:09.967Z,100215.29
2019-03-21T16:13:41.279Z,100209.95
2019-03-21T16:16:12.559Z,100218.14
2019-03-21T16:18:43.916Z,100219.95
2019-03-21T16:21:15.310Z,100217.83
2019-03-21T16:23:46.660Z,100224.54
2019-03-21T16:26:17.872Z,100219.84
2019-03-21T16:28:49.211Z,100218.80
2019-03-21T16:31:20.510Z,100220.47
2019-03-21T16:33:51.859Z,100216.45
2019-03-21T16:36:23.357Z,100225.81
2019-03-21T16:38:54.807Z,100223.83
2019-03-21T16:41:26.138Z,100226.83
2019-03-21T16:43:57.543Z,100231.48
2019-03-21T16:46:28.835Z,100237.17
2019-03-21T16:49:00.285Z,100236.33
2019-03-21T16:51:32.701Z,100236.45
2019-03-21T16:54:16.221Z,100233.16
2019-03-21T16:56:37.109Z,100242.71
2019-03-21T16:59:08.467Z,100245.84
2019-03-21T17:01:39.873Z,100252.25
2019-03-21T17:04:11.136Z,100248.84
2019-03-21T17:06:42.519Z,100251.80
2019-03-21T17:09:13.801Z,100260.19
2019-03-21T17:11:45.102Z,100259.34
2019-03-21T17:14:16.667Z,100260.00
2019-03-21T17:16:47.925Z,100263.41
2019-03-21T17:19:19.248Z,100269.05
2019-03-21T17:21:50.710Z,100268.59
2019-03-21T17:24:29.178Z,100285.63
2019-03-21T17:26:54.966Z,100283.22
2019-03-21T17:29:26.313Z,100285.38
2019-03-21T17:31:57.755Z,100289.88
2019-03-21T17:34:29.123Z,100287.47
2019-03-21T17:37:00.504Z,100291.58
2019-03-21T17:39:31.884Z,100297.06
2019-03-21T17:42:03.627Z,100299.79
2019-03-21T17:44:35.117Z,100298.44
2019-03-21T17:47:06.544Z,100303.32
2019-03-21T17:49:38.673Z,100314.59
2019-03-21T17:52:10.031Z,100313.41
2019-03-21T17:54:42.838Z,100314.38
2019-03-21T17:57:14.216Z,100320.47
2019-03-21T17:59:45.600Z,100325.95
2019-03-21T18:02:16.950Z,100327.34
2019-03-21T18:04:48.385Z,100323.65
2019-03-21T18:07:19.763Z,100323.91
2019-03-21T18:09:51.080Z,100328.41
2019-03-21T18:12:23.641Z,100340.22
2019-03-21T18:14:54.911Z,100336.05
2019-03-21T18:17:26.328Z,100340.42
2019-03-21T18:19:57.720Z,100341.14
2019-03-21T18:22:29.057Z,100341.19
2019-03-21T18:25:00.564Z,100349.47
2019-03-21T18:27:31.921Z,100353.88
2019-03-21T18:30:03.492Z,100344.63
2019-03-21T18:32:35.876Z,100347.25
2019-03-21T18:35:07.142Z,100343.56
2019-03-21T18:37:38.477Z,100344.92
2019-03-21T18:40:10.944Z,100354.89
2019-03-21T18:42:42.330Z,100341.87
2019-03-21T18:45:14.763Z,100355.93
2019-03-21T18:47:46.102Z,100348.89
2019-03-21T18:50:17.600Z,100350.59
2019-03-21T18:52:48.927Z,100352.80
2019-03-21T18:55:20.264Z,100349.83
2019-03-21T18:57:53.968Z,100365.06
2019-03-21T19:00:25.417Z,100364.81
2019-03-21T19:02:56.731Z,100358.06
2019-03-21T19:05:28.078Z,100365.05
2019-03-21T19:07:59.486Z,100358.20
2019-03-21T19:10:30.871Z,100361.30
2019-03-21T19:13:02.322Z,100359.84
2019-03-21T19:15:33.626Z,100364.95
2019-03-21T19:18:04.936Z,100366.88
2019-03-21T19:20:36.321Z,100369.63
2019-03-21T19:23:07.648Z,100372.70
2019-03-21T19:25:39.085Z,100371.89
2019-03-21T19:28:10.454Z,100372.96
2019-03-21T19:30:41.854Z,100387.16
2019-03-21T19:33:13.114Z,100382.38
2019-03-21T19:35:46.862Z,100382.95
2019-03-21T19:38:17.861Z,100382.41
2019-03-21T19:40:49.255Z,100379.45
2019-03-21T19:43:20.802Z,100382.30
2019-03-21T19:45:52.195Z,100373.63
2019-03-21T19:48:24.579Z,100377.86
2019-03-21T19:50:55.949Z,100376.89
2019-03-21T19:53:28.983Z,100373.28
2019-03-21T19:56:08.564Z,100372.80
2019-03-21T19:58:33.475Z,100364.16
2019-03-21T20:01:04.869Z,100364.31
2019-03-21T20:03:37.473Z,100367.80
2019-03-21T20:06:08.904Z,100372.59
2019-03-21T20:08:40.327Z,100378.41
2019-03-21T20:11:11.747Z,100378.63
2019-03-21T20:13:43.066Z,100371.88
2019-03-21T20:16:15.035Z,100372.67
2019-03-21T20:18:46.428Z,100377.67
2019-03-21T20:21:17.825Z,100376.88
2019-03-21T20:23:49.266Z,100374.98
2019-03-21T20:26:20.537Z,100384.88
2019-03-21T20:28:52.017Z,100386.50
2019-03-21T20:31:23.391Z,100384.22
2019-03-21T20:33:54.684Z,100383.54
2019-03-21T20:36:26.108Z,100374.66
2019-03-21T20:38:57.447Z,100376.55
2019-03-21T20:41:28.786Z,100377.48
2019-03-21T20:44:00.115Z,100375.48
2019-03-21T20:46:31.458Z,100374.25
2019-03-21T20:49:02.839Z,100379.73
2019-03-21T20:51:34.189Z,100374.30
2019-03-21T20:54:05.461Z,100375.66
2019-03-21T20:56:36.890Z,100367.32
2019-03-21T20:59:08.351Z,100367.32
2019-03-21T21:01:39.716Z,100371.58
2019-03-21T21:04:11.542Z,100369.65
2019-03-21T21:06:42.957Z,100367.25
2019-03-21T21:09:14.354Z,100364.05
2019-03-21T21:11:45.670Z,100361.86
2019-03-21T21:14:17.009Z,100360.81
2019-03-21T21:16:48.265Z,100364.62
2019-03-21T21:19:19.624Z,100366.84
2019-03-21T21:21:50.931Z,100360.97
2019-03-21T21:24:23.473Z,100356.89
2019-03-21T21:26:54.750Z,100359.34
2019-03-21T21:29:26.151Z,100357.67
2019-03-21T21:31:57.583Z,100350.37
2019-03-21T21:34:28.976Z,100348.13
2019-03-21T21:37:01.267Z,100356.70
2019-03-21T21:39:32.625Z,100356.81
2019-03-21T21:42:04.017Z,100356.05
2019-03-21T21:44:35.334Z,100361.66
2019-03-21T21:47:06.612Z,100348.63
2019-03-21T21:49:37.995Z,100348.91
2019-03-21T21:52:09.334Z,100352.83
2019-03-21T21:54:40.655Z,100340.61
2019-03-21T21:57:12.074Z,100349.75
2019-03-21T21:59:43.404Z,100347.01
2019-03-21T22:02:14.723Z,100342.37
2019-03-21T22:04:46.020Z,100346.66
2019-03-21T22:07:17.296Z,100343.72
2019-03-21T22:09:48.708Z,100349.34
2019-03-21T22:12:20.038Z,100351.57
2019-03-21T22:14:53.480Z,100356.41
2019-03-21T22:17:24.909Z,100353.67
2019-03-21T22:19:56.278Z,100359.30
2019-03-21T22:22:27.662Z,100361.72
2019-03-21T22:24:59.176Z,100361.25
2019-03-21T22:27:30.562Z,100353.67
2019-03-21T22:30:04.235Z,100356.33
2019-03-21T22:32:34.985Z,100353.30
2019-03-21T22:35:07.394Z,100351.20
2019-03-21T22:37:38.716Z,100359.91
2019-03-21T22:40:14.591Z,100350.25
2019-03-21T22:42:46.007Z,100360.81
2019-03-21T22:45:17.633Z,100356.06
2019-03-21T22:47:50.525Z,100350.47
2019-03-21T22:50:21.989Z,100346.50
2019-03-21T22:52:53.293Z,100354.92
2019-03-21T22:55:24.698Z,100353.67
2019-03-21T22:57:56.073Z,100351.78
2019-03-21T23:00:35.072Z,100348.74
2019-03-21T23:03:06.444Z,100348.55
2019-03-21T23:05:37.793Z,100343.50
2019-03-21T23:08:09.089Z,100351.89
2019-03-21T23:10:40.331Z,100339.08
2019-03-21T23:13:11.772Z,100339.93
2019-03-21T23:15:43.043Z,100350.80
2019-03-21T23:18:14.449Z,100349.25
2019-03-21T23:20:45.679Z,100347.08
2019-03-21T23:23:18.019Z,100344.41
2019-03-21T23:25:49.350Z,100347.98
2019-03-21T23:28:20.687Z,100352.05
2019-03-21T23:30:52.035Z,100351.15
2019-03-21T23:33:23.573Z,100352.28
2019-03-21T23:35:54.998Z,100354.38
2019-03-21T23:38:26.326Z,100345.53
2019-03-21T23:40:58.640Z,100344.08
2019-03-21T23:43:30.007Z,100341.55
2019-03-21T23:46:01.379Z,100336.90
2019-03-21T23:48:32.838Z,100339.88
2019-03-21T23:51:04.164Z,100338.05
2019-03-21T23:53:35.682Z,100334.95
2019-03-21T23:56:07.039Z,100325.48
2019-03-21T23:58:38.316Z,100317.06
